sensor_id;sensor_type;location;lat;lon;timestamp;P1;durP1;ratioP1;P2;durP2;ratioP2
44120;SDS011;29783;52.504;13.478;2022-11-15T00:00:26;78.05;;;48.00;;
44120;SDS011;29783;52.504;13.478;2022-11-15T00:02:53;67.75;;;45.72;;
44120;SDS011;29783;52.504;13.478;2022-11-15T00:05:19;74.55;;;47.17;;
44120;SDS011;29783;52.504;13.478;2022-11-15T00:07:45;70.18;;;46.67;;
44120;SDS011;29783;52.504;13.478;2022-11-15T00:10:14;77.30;;;48.25;;
44120;SDS011;29783;52.504;13.478;2022-11-15T00:12:40;68.57;;;46.75;;
44120;SDS011;29783;52.504;13.478;2022-11-15T00:15:06;66.95;;;46.03;;
44120;SDS011;29783;52.504;13.478;2022-11-15T00:17:32;68.78;;;47.67;;
44120;SDS011;29783;52.504;13.478;2022-11-15T00:19:58;69.97;;;46.35;;
44120;SDS011;29783;52.504;13.478;2022-11-15T00:22:24;68.60;;;47.05;;
44120;SDS011;29783;52.504;13.478;2022-11-15T00:25:03;65.95;;;45.70;;
44120;SDS011;29783;52.504;13.478;2022-11-15T00:27:29;57.03;;;35.92;;
44120;SDS011;29783;52.504;13.478;2022-11-15T00:29:55;70.00;;;47.10;;
44120;SDS011;29783;52.504;13.478;2022-11-15T00:32:23;75.72;;;48.85;;
44120;SDS011;29783;52.504;13.478;2022-11-15T00:34:52;72.88;;;48.88;;
44120;SDS011;29783;52.504;13.478;2022-11-15T00:37:23;76.43;;;49.58;;
44120;SDS011;29783;52.504;13.478;2022-11-15T00:39:49;67.97;;;47.83;;
44120;SDS011;29783;52.504;13.478;2022-11-15T00:42:18;71.63;;;47.83;;
44120;SDS011;29783;52.504;13.478;2022-11-15T00:44:45;77.13;;;50.80;;
44120;SDS011;29783;52.504;13.478;2022-11-15T00:47:11;71.68;;;46.53;;
44120;SDS011;29783;52.504;13.478;2022-11-15T00:49:37;68.38;;;47.60;;
44120;SDS011;29783;52.504;13.478;2022-11-15T00:52:08;72.20;;;47.83;;
44120;SDS011;29783;52.504;13.478;2022-11-15T00:55:06;69.85;;;47.50;;
44120;SDS011;29783;52.504;13.478;2022-11-15T00:57:52;67.72;;;45.67;;
44120;SDS011;29783;52.504;13.478;2022-11-15T01:03:58;69.35;;;46.25;;
44120;SDS011;29783;52.504;13.478;2022-11-15T01:06:24;71.00;;;47.28;;
44120;SDS011;29783;52.504;13.478;2022-11-15T01:08:51;73.80;;;47.15;;
44120;SDS011;29783;52.504;13.478;2022-11-15T01:11:20;66.05;;;47.05;;
44120;SDS011;29783;52.504;13.478;2022-11-15T01:13:46;65.35;;;46.65;;
44120;SDS011;29783;52.504;13.478;2022-11-15T01:16:12;72.28;;;47.35;;
44120;SDS011;29783;52.504;13.478;2022-11-15T01:18:44;72.80;;;47.28;;
44120;SDS011;29783;52.504;13.478;2022-11-15T01:21:21;66.00;;;46.38;;
44120;SDS011;29783;52.504;13.478;2022-11-15T01:24:07;73.05;;;48.65;;
44120;SDS011;29783;52.504;13.478;2022-11-15T01:26:40;67.65;;;47.15;;
44120;SDS011;29783;52.504;13.478;2022-11-15T01:29:07;74.68;;;47.67;;
44120;SDS011;29783;52.504;13.478;2022-11-15T01:31:41;71.82;;;46.40;;
44120;SDS011;29783;52.504;13.478;2022-11-15T01:34:10;67.50;;;45.42;;
44120;SDS011;29783;52.504;13.478;2022-11-15T01:36:36;66.10;;;45.22;;
44120;SDS011;29783;52.504;13.478;2022-11-15T01:39:10;80.50;;;49.25;;
44120;SDS011;29783;52.504;13.478;2022-11-15T01:56:46;75.03;;;45.67;;
44120;SDS011;29783;52.504;13.478;2022-11-15T01:59:20;79.53;;;46.47;;
44120;SDS011;29783;52.504;13.478;2022-11-15T02:01:46;81.47;;;51.63;;
44120;SDS011;29783;52.504;13.478;2022-11-15T02:04:20;72.03;;;49.75;;
44120;SDS011;29783;52.504;13.478;2022-11-15T02:06:52;82.07;;;48.85;;
44120;SDS011;29783;52.504;13.478;2022-11-15T02:09:18;78.15;;;47.70;;
44120;SDS011;29783;52.504;13.478;2022-11-15T02:11:44;79.70;;;48.72;;
44120;SDS011;29783;52.504;13.478;2022-11-15T02:14:13;75.97;;;49.72;;
44120;SDS011;29783;52.504;13.478;2022-11-15T02:27:59;81.15;;;51.00;;
44120;SDS011;29783;52.504;13.478;2022-11-15T02:33:35;84.85;;;51.50;;
44120;SDS011;29783;52.504;13.478;2022-11-15T02:36:02;83.07;;;50.25;;
44120;SDS011;29783;52.504;13.478;2022-11-15T02:41:26;76.30;;;48.72;;
44120;SDS011;29783;52.504;13.478;2022-11-15T02:44:01;80.60;;;50.13;;
44120;SDS011;29783;52.504;13.478;2022-11-15T02:49:41;78.90;;;47.20;;
44120;SDS011;29783;52.504;13.478;2022-11-15T02:52:16;81.50;;;50.55;;
44120;SDS011;29783;52.504;13.478;2022-11-15T02:54:52;73.47;;;48.20;;
44120;SDS011;29783;52.504;13.478;2022-11-15T02:57:41;72.10;;;46.95;;
44120;SDS011;29783;52.504;13.478;2022-11-15T03:00:25;75.03;;;49.55;;
44120;SDS011;29783;52.504;13.478;2022-11-15T03:13:16;75.30;;;45.40;;
44120;SDS011;29783;52.504;13.478;2022-11-15T03:15:47;67.38;;;45.90;;
44120;SDS011;29783;52.504;13.478;2022-11-15T03:18:28;74.07;;;46.75;;
44120;SDS011;29783;52.504;13.478;2022-11-15T03:21:07;75.38;;;46.28;;
44120;SDS011;29783;52.504;13.478;2022-11-15T03:23:39;81.63;;;48.13;;
44120;SDS011;29783;52.504;13.478;2022-11-15T03:26:18;78.28;;;48.38;;
44120;SDS011;29783;52.504;13.478;2022-11-15T03:29:08;78.88;;;49.78;;
44120;SDS011;29783;52.504;13.478;2022-11-15T03:31:49;74.82;;;50.90;;
44120;SDS011;29783;52.504;13.478;2022-11-15T03:36:51;73.03;;;48.00;;
44120;SDS011;29783;52.504;13.478;2022-11-15T03:39:20;78.85;;;49.95;;
44120;SDS011;29783;52.504;13.478;2022-11-15T03:44:16;75.05;;;46.72;;
44120;SDS011;29783;52.504;13.478;2022-11-15T03:46:47;68.82;;;47.40;;
44120;SDS011;29783;52.504;13.478;2022-11-15T03:49:35;80.53;;;49.28;;
44120;SDS011;29783;52.504;13.478;2022-11-15T03:52:08;77.30;;;49.45;;
44120;SDS011;29783;52.504;13.478;2022-11-15T03:54:49;76.97;;;49.10;;
44120;SDS011;29783;52.504;13.478;2022-11-15T03:57:21;67.82;;;45.70;;
44120;SDS011;29783;52.504;13.478;2022-11-15T03:59:55;79.63;;;48.15;;
44120;SDS011;29783;52.504;13.478;2022-11-15T04:02:29;69.78;;;46.38;;
44120;SDS011;29783;52.504;13.478;2022-11-15T04:04:58;74.60;;;47.05;;
44120;SDS011;29783;52.504;13.478;2022-11-15T04:07:26;68.93;;;46.65;;
44120;SDS011;29783;52.504;13.478;2022-11-15T04:09:55;71.05;;;47.78;;
44120;SDS011;29783;52.504;13.478;2022-11-15T04:15:05;70.72;;;47.80;;
44120;SDS011;29783;52.504;13.478;2022-11-15T04:17:36;71.75;;;47.55;;
44120;SDS011;29783;52.504;13.478;2022-11-15T04:20:05;82.88;;;52.20;;
44120;SDS011;29783;52.504;13.478;2022-11-15T04:23:11;75.50;;;49.03;;
44120;SDS011;29783;52.504;13.478;2022-11-15T04:26:00;73.28;;;48.88;;
44120;SDS011;29783;52.504;13.478;2022-11-15T04:28:28;72.30;;;48.40;;
44120;SDS011;29783;52.504;13.478;2022-11-15T04:30:56;71.22;;;48.83;;
44120;SDS011;29783;52.504;13.478;2022-11-15T04:33:22;70.93;;;49.03;;
44120;SDS011;29783;52.504;13.478;2022-11-15T04:35:49;74.85;;;49.63;;
44120;SDS011;29783;52.504;13.478;2022-11-15T04:38:38;72.45;;;49.00;;
44120;SDS011;29783;52.504;13.478;2022-11-15T04:41:10;75.22;;;48.05;;
44120;SDS011;29783;52.504;13.478;2022-11-15T04:44:02;76.25;;;48.53;;
44120;SDS011;29783;52.504;13.478;2022-11-15T04:46:36;71.80;;;47.95;;
44120;SDS011;29783;52.504;13.478;2022-11-15T05:08:55;58.40;;;42.38;;
44120;SDS011;29783;52.504;13.478;2022-11-15T05:32:33;67.95;;;46.70;;
44120;SDS011;29783;52.504;13.478;2022-11-15T05:41:30;70.60;;;46.55;;
44120;SDS011;29783;52.504;13.478;2022-11-15T05:44:02;69.28;;;47.00;;
44120;SDS011;29783;52.504;13.478;2022-11-15T05:46:32;71.53;;;47.47;;
44120;SDS011;29783;52.504;13.478;2022-11-15T05:48:59;72.93;;;46.17;;
44120;SDS011;29783;52.504;13.478;2022-11-15T05:51:25;72.75;;;46.65;;
44120;SDS011;29783;52.504;13.478;2022-11-15T05:53:52;74.18;;;48.88;;
44120;SDS011;29783;52.504;13.478;2022-11-15T05:56:21;68.57;;;46.65;;
44120;SDS011;29783;52.504;13.478;2022-11-15T05:58:47;71.68;;;46.95;;
44120;SDS011;29783;52.504;13.478;2022-11-15T06:01:13;71.35;;;45.90;;
44120;SDS011;29783;52.504;13.478;2022-11-15T06:03:39;72.15;;;48.58;;
44120;SDS011;29783;52.504;13.478;2022-11-15T06:06:05;75.15;;;49.22;;
44120;SDS011;29783;52.504;13.478;2022-11-15T06:08:30;74.90;;;46.90;;
44120;SDS011;29783;52.504;13.478;2022-11-15T06:10:56;71.75;;;45.00;;
44120;SDS011;29783;52.504;13.478;2022-11-15T06:13:27;70.85;;;46.25;;
44120;SDS011;29783;52.504;13.478;2022-11-15T06:15:55;61.10;;;44.80;;
44120;SDS011;29783;52.504;13.478;2022-11-15T06:18:21;68.25;;;46.75;;
44120;SDS011;29783;52.504;13.478;2022-11-15T06:20:47;73.90;;;48.85;;
44120;SDS011;29783;52.504;13.478;2022-11-15T06:23:15;68.97;;;46.15;;
44120;SDS011;29783;52.504;13.478;2022-11-15T06:25:42;70.45;;;48.78;;
44120;SDS011;29783;52.504;13.478;2022-11-15T06:28:08;65.15;;;44.97;;
44120;SDS011;29783;52.504;13.478;2022-11-15T06:30:33;70.50;;;48.30;;
44120;SDS011;29783;52.504;13.478;2022-11-15T06:33:03;68.15;;;45.80;;
44120;SDS011;29783;52.504;13.478;2022-11-15T06:35:30;66.78;;;45.40;;
44120;SDS011;29783;52.504;13.478;2022-11-15T06:38:05;70.65;;;45.42;;
44120;SDS011;29783;52.504;13.478;2022-11-15T06:40:33;64.35;;;45.13;;
44120;SDS011;29783;52.504;13.478;2022-11-15T06:43:00;71.63;;;47.42;;
44120;SDS011;29783;52.504;13.478;2022-11-15T06:45:26;66.40;;;46.25;;
44120;SDS011;29783;52.504;13.478;2022-11-15T06:47:52;67.93;;;45.92;;
44120;SDS011;29783;52.504;13.478;2022-11-15T06:50:18;61.72;;;44.28;;
44120;SDS011;29783;52.504;13.478;2022-11-15T06:52:44;64.78;;;44.80;;
44120;SDS011;29783;52.504;13.478;2022-11-15T06:55:09;62.45;;;45.97;;
44120;SDS011;29783;52.504;13.478;2022-11-15T06:57:35;66.10;;;44.85;;
44120;SDS011;29783;52.504;13.478;2022-11-15T07:00:04;66.55;;;44.42;;
44120;SDS011;29783;52.504;13.478;2022-11-15T07:02:31;65.30;;;45.10;;
44120;SDS011;29783;52.504;13.478;2022-11-15T07:04:56;67.57;;;45.92;;
44120;SDS011;29783;52.504;13.478;2022-11-15T07:07:22;67.53;;;44.72;;
44120;SDS011;29783;52.504;13.478;2022-11-15T07:09:48;71.18;;;46.17;;
44120;SDS011;29783;52.504;13.478;2022-11-15T07:12:13;77.65;;;44.92;;
44120;SDS011;29783;52.504;13.478;2022-11-15T07:14:39;67.63;;;47.10;;
44120;SDS011;29783;52.504;13.478;2022-11-15T07:17:05;60.72;;;45.53;;
44120;SDS011;29783;52.504;13.478;2022-11-15T07:19:31;63.55;;;45.05;;
44120;SDS011;29783;52.504;13.478;2022-11-15T07:21:57;68.40;;;47.08;;
44120;SDS011;29783;52.504;13.478;2022-11-15T07:24:22;61.53;;;45.10;;
44120;SDS011;29783;52.504;13.478;2022-11-15T07:26:48;70.10;;;46.75;;
44120;SDS011;29783;52.504;13.478;2022-11-15T07:29:14;59.67;;;45.05;;
44120;SDS011;29783;52.504;13.478;2022-11-15T07:31:39;70.20;;;47.40;;
44120;SDS011;29783;52.504;13.478;2022-11-15T07:34:05;62.55;;;46.03;;
44120;SDS011;29783;52.504;13.478;2022-11-15T07:36:31;67.15;;;46.28;;
44120;SDS011;29783;52.504;13.478;2022-11-15T07:38:59;71.13;;;46.92;;
44120;SDS011;29783;52.504;13.478;2022-11-15T07:41:25;72.60;;;48.72;;
44120;SDS011;29783;52.504;13.478;2022-11-15T07:43:51;59.42;;;44.67;;
44120;SDS011;29783;52.504;13.478;2022-11-15T07:46:17;65.53;;;47.90;;
44120;SDS011;29783;52.504;13.478;2022-11-15T07:48:43;58.30;;;45.28;;
44120;SDS011;29783;52.504;13.478;2022-11-15T07:51:13;59.90;;;45.05;;
44120;SDS011;29783;52.504;13.478;2022-11-15T07:53:39;56.67;;;44.63;;
44120;SDS011;29783;52.504;13.478;2022-11-15T07:56:06;61.90;;;44.53;;
44120;SDS011;29783;52.504;13.478;2022-11-15T07:58:33;71.47;;;48.28;;
44120;SDS011;29783;52.504;13.478;2022-11-15T08:01:02;61.60;;;45.72;;
44120;SDS011;29783;52.504;13.478;2022-11-15T08:03:29;63.35;;;44.67;;
44120;SDS011;29783;52.504;13.478;2022-11-15T08:05:55;69.57;;;46.03;;
44120;SDS011;29783;52.504;13.478;2022-11-15T08:08:20;62.75;;;45.80;;
44120;SDS011;29783;52.504;13.478;2022-11-15T08:10:46;63.58;;;46.08;;
44120;SDS011;29783;52.504;13.478;2022-11-15T08:13:12;60.13;;;47.05;;
44120;SDS011;29783;52.504;13.478;2022-11-15T08:15:38;63.70;;;46.55;;
44120;SDS011;29783;52.504;13.478;2022-11-15T08:18:14;59.97;;;45.05;;
44120;SDS011;29783;52.504;13.478;2022-11-15T08:20:41;58.80;;;45.55;;
44120;SDS011;29783;52.504;13.478;2022-11-15T08:23:09;63.33;;;44.83;;
44120;SDS011;29783;52.504;13.478;2022-11-15T08:25:36;65.20;;;47.38;;
44120;SDS011;29783;52.504;13.478;2022-11-15T08:28:03;70.82;;;46.85;;
44120;SDS011;29783;52.504;13.478;2022-11-15T08:30:33;62.35;;;44.30;;
44120;SDS011;29783;52.504;13.478;2022-11-15T08:33:09;67.15;;;48.00;;
44120;SDS011;29783;52.504;13.478;2022-11-15T08:35:37;63.88;;;46.35;;
44120;SDS011;29783;52.504;13.478;2022-11-15T08:38:05;65.88;;;47.25;;
44120;SDS011;29783;52.504;13.478;2022-11-15T08:40:31;66.50;;;45.58;;
44120;SDS011;29783;52.504;13.478;2022-11-15T08:42:57;61.78;;;46.90;;
44120;SDS011;29783;52.504;13.478;2022-11-15T08:45:23;53.55;;;44.88;;
44120;SDS011;29783;52.504;13.478;2022-11-15T08:47:49;64.35;;;47.58;;
44120;SDS011;29783;52.504;13.478;2022-11-15T08:50:15;70.25;;;46.53;;
44120;SDS011;29783;52.504;13.478;2022-11-15T08:52:41;55.95;;;43.83;;
44120;SDS011;29783;52.504;13.478;2022-11-15T08:55:10;61.08;;;43.70;;
44120;SDS011;29783;52.504;13.478;2022-11-15T08:57:36;61.50;;;45.33;;
44120;SDS011;29783;52.504;13.478;2022-11-15T09:00:02;67.85;;;44.58;;
44120;SDS011;29783;52.504;13.478;2022-11-15T09:02:28;59.35;;;45.60;;
44120;SDS011;29783;52.504;13.478;2022-11-15T09:04:54;56.45;;;45.15;;
44120;SDS011;29783;52.504;13.478;2022-11-15T09:07:20;60.33;;;44.30;;
44120;SDS011;29783;52.504;13.478;2022-11-15T09:09:46;54.65;;;44.22;;
44120;SDS011;29783;52.504;13.478;2022-11-15T09:12:11;56.13;;;42.03;;
44120;SDS011;29783;52.504;13.478;2022-11-15T09:14:37;51.50;;;41.20;;
44120;SDS011;29783;52.504;13.478;2022-11-15T09:17:03;59.85;;;45.38;;
44120;SDS011;29783;52.504;13.478;2022-11-15T09:19:32;51.58;;;42.88;;
44120;SDS011;29783;52.504;13.478;2022-11-15T09:21:57;49.47;;;39.20;;
44120;SDS011;29783;52.504;13.478;2022-11-15T09:24:23;48.95;;;39.42;;
44120;SDS011;29783;52.504;13.478;2022-11-15T09:26:49;46.13;;;38.40;;
44120;SDS011;29783;52.504;13.478;2022-11-15T09:29:16;52.17;;;39.75;;
44120;SDS011;29783;52.504;13.478;2022-11-15T09:31:42;46.55;;;37.65;;
44120;SDS011;29783;52.504;13.478;2022-11-15T09:34:08;44.25;;;37.67;;
44120;SDS011;29783;52.504;13.478;2022-11-15T09:36:34;50.38;;;34.85;;
44120;SDS011;29783;52.504;13.478;2022-11-15T09:39:00;41.72;;;33.35;;
44120;SDS011;29783;52.504;13.478;2022-11-15T09:44:48;38.70;;;31.08;;
44120;SDS011;29783;52.504;13.478;2022-11-15T09:50:41;39.20;;;31.02;;
44120;SDS011;29783;52.504;13.478;2022-11-15T09:53:12;36.28;;;30.60;;
44120;SDS011;29783;52.504;13.478;2022-11-15T09:56:13;38.88;;;29.63;;
44120;SDS011;29783;52.504;13.478;2022-11-15T10:01:12;37.78;;;27.63;;
44120;SDS011;29783;52.504;13.478;2022-11-15T10:03:47;42.88;;;27.90;;
44120;SDS011;29783;52.504;13.478;2022-11-15T10:06:21;36.72;;;24.65;;
44120;SDS011;29783;52.504;13.478;2022-11-15T10:11:48;29.20;;;23.38;;
44120;SDS011;29783;52.504;13.478;2022-11-15T10:14:16;35.75;;;23.60;;
44120;SDS011;29783;52.504;13.478;2022-11-15T10:25:27;25.38;;;19.63;;
44120;SDS011;29783;52.504;13.478;2022-11-15T10:27:52;30.05;;;20.73;;
44120;SDS011;29783;52.504;13.478;2022-11-15T10:30:40;24.98;;;19.80;;
44120;SDS011;29783;52.504;13.478;2022-11-15T10:33:26;33.70;;;20.67;;
44120;SDS011;29783;52.504;13.478;2022-11-15T10:41:29;27.08;;;18.25;;
44120;SDS011;29783;52.504;13.478;2022-11-15T10:49:17;25.65;;;16.73;;
44120;SDS011;29783;52.504;13.478;2022-11-15T10:51:53;21.92;;;15.32;;
44120;SDS011;29783;52.504;13.478;2022-11-15T10:54:29;26.75;;;16.10;;
44120;SDS011;29783;52.504;13.478;2022-11-15T10:57:13;19.83;;;16.08;;
44120;SDS011;29783;52.504;13.478;2022-11-15T10:59:45;25.42;;;15.65;;
44120;SDS011;29783;52.504;13.478;2022-11-15T11:04:52;17.58;;;15.00;;
44120;SDS011;29783;52.504;13.478;2022-11-15T11:07:23;16.92;;;15.13;;
44120;SDS011;29783;52.504;13.478;2022-11-15T11:10:00;23.50;;;14.13;;
44120;SDS011;29783;52.504;13.478;2022-11-15T11:12:30;19.77;;;15.07;;
44120;SDS011;29783;52.504;13.478;2022-11-15T11:14:58;23.75;;;14.18;;
44120;SDS011;29783;52.504;13.478;2022-11-15T11:17:29;21.38;;;15.13;;
44120;SDS011;29783;52.504;13.478;2022-11-15T11:33:31;19.25;;;16.05;;
44120;SDS011;29783;52.504;13.478;2022-11-15T11:36:39;23.05;;;15.25;;
44120;SDS011;29783;52.504;13.478;2022-11-15T11:42:08;18.95;;;14.98;;
44120;SDS011;29783;52.504;13.478;2022-11-15T11:47:24;25.42;;;15.18;;
44120;SDS011;29783;52.504;13.478;2022-11-15T11:50:21;29.67;;;15.18;;
44120;SDS011;29783;52.504;13.478;2022-11-15T11:52:57;26.17;;;14.90;;
44120;SDS011;29783;52.504;13.478;2022-11-15T11:55:32;19.40;;;15.15;;
44120;SDS011;29783;52.504;13.478;2022-11-15T11:58:17;25.17;;;16.38;;
44120;SDS011;29783;52.504;13.478;2022-11-15T12:03:42;18.83;;;14.32;;
44120;SDS011;29783;52.504;13.478;2022-11-15T12:09:19;20.48;;;14.98;;
44120;SDS011;29783;52.504;13.478;2022-11-15T12:12:01;19.98;;;15.13;;
44120;SDS011;29783;52.504;13.478;2022-11-15T12:17:01;23.88;;;14.85;;
44120;SDS011;29783;52.504;13.478;2022-11-15T12:19:28;23.85;;;15.05;;
44120;SDS011;29783;52.504;13.478;2022-11-15T12:24:29;19.67;;;15.98;;
44120;SDS011;29783;52.504;13.478;2022-11-15T12:27:18;19.55;;;14.75;;
44120;SDS011;29783;52.504;13.478;2022-11-15T12:30:14;19.85;;;14.02;;
44120;SDS011;29783;52.504;13.478;2022-11-15T12:32:49;16.38;;;14.02;;
44120;SDS011;29783;52.504;13.478;2022-11-15T12:35:23;22.02;;;14.90;;
44120;SDS011;29783;52.504;13.478;2022-11-15T12:38:10;21.00;;;13.65;;
44120;SDS011;29783;52.504;13.478;2022-11-15T12:40:38;23.63;;;13.15;;
44120;SDS011;29783;52.504;13.478;2022-11-15T12:43:41;16.33;;;12.23;;
44120;SDS011;29783;52.504;13.478;2022-11-15T12:46:13;17.77;;;13.05;;
44120;SDS011;29783;52.504;13.478;2022-11-15T13:00:35;16.00;;;11.50;;
44120;SDS011;29783;52.504;13.478;2022-11-15T13:02:40;12.70;;;9.93;;
44120;SDS011;29783;52.504;13.478;2022-11-15T13:13:43;16.83;;;8.75;;
44120;SDS011;29783;52.504;13.478;2022-11-15T13:16:10;13.23;;;9.43;;
44120;SDS011;29783;52.504;13.478;2022-11-15T13:18:42;13.68;;;9.20;;
44120;SDS011;29783;52.504;13.478;2022-11-15T13:21:19;15.43;;;9.30;;
44120;SDS011;29783;52.504;13.478;2022-11-15T13:24:13;14.10;;;9.52;;
44120;SDS011;29783;52.504;13.478;2022-11-15T13:26:41;12.48;;;8.48;;
44120;SDS011;29783;52.504;13.478;2022-11-15T13:29:17;15.85;;;8.63;;
44120;SDS011;29783;52.504;13.478;2022-11-15T13:31:44;13.25;;;9.00;;
44120;SDS011;29783;52.504;13.478;2022-11-15T13:34:24;15.65;;;8.50;;
44120;SDS011;29783;52.504;13.478;2022-11-15T13:36:50;14.65;;;8.82;;
44120;SDS011;29783;52.504;13.478;2022-11-15T13:41:51;12.88;;;8.93;;
44120;SDS011;29783;52.504;13.478;2022-11-15T13:44:28;11.73;;;8.27;;
44120;SDS011;29783;52.504;13.478;2022-11-15T13:47:20;12.40;;;9.43;;
44120;SDS011;29783;52.504;13.478;2022-11-15T13:49:46;11.30;;;8.95;;
44120;SDS011;29783;52.504;13.478;2022-11-15T13:52:13;14.45;;;9.25;;
44120;SDS011;29783;52.504;13.478;2022-11-15T13:54:43;11.50;;;8.90;;
44120;SDS011;29783;52.504;13.478;2022-11-15T13:59:54;15.77;;;9.48;;
44120;SDS011;29783;52.504;13.478;2022-11-15T14:02:32;18.63;;;9.90;;
44120;SDS011;29783;52.504;13.478;2022-11-15T14:05:15;12.68;;;9.57;;
44120;SDS011;29783;52.504;13.478;2022-11-15T14:07:52;19.63;;;10.32;;
44120;SDS011;29783;52.504;13.478;2022-11-15T14:10:29;17.42;;;10.07;;
44120;SDS011;29783;52.504;13.478;2022-11-15T14:12:58;13.88;;;8.75;;
44120;SDS011;29783;52.504;13.478;2022-11-15T14:15:26;15.15;;;9.80;;
44120;SDS011;29783;52.504;13.478;2022-11-15T14:17:55;15.65;;;10.07;;
44120;SDS011;29783;52.504;13.478;2022-11-15T14:22:58;18.40;;;10.45;;
44120;SDS011;29783;52.504;13.478;2022-11-15T14:25:29;13.90;;;10.07;;
44120;SDS011;29783;52.504;13.478;2022-11-15T14:30:44;17.85;;;12.35;;
44120;SDS011;29783;52.504;13.478;2022-11-15T14:33:34;17.40;;;10.15;;
44120;SDS011;29783;52.504;13.478;2022-11-15T14:36:26;14.38;;;10.85;;
44120;SDS011;29783;52.504;13.478;2022-11-15T14:38:56;14.73;;;11.18;;
44120;SDS011;29783;52.504;13.478;2022-11-15T14:41:26;15.27;;;11.25;;
44120;SDS011;29783;52.504;13.478;2022-11-15T14:43:52;18.10;;;11.75;;
44120;SDS011;29783;52.504;13.478;2022-11-15T14:46:18;17.45;;;12.38;;
44120;SDS011;29783;52.504;13.478;2022-11-15T14:48:47;22.05;;;13.45;;
44120;SDS011;29783;52.504;13.478;2022-11-15T14:51:28;18.25;;;13.93;;
44120;SDS011;29783;52.504;13.478;2022-11-15T14:53:54;19.25;;;14.20;;
44120;SDS011;29783;52.504;13.478;2022-11-15T14:56:20;20.08;;;13.43;;
44120;SDS011;29783;52.504;13.478;2022-11-15T14:58:46;16.60;;;14.25;;
44120;SDS011;29783;52.504;13.478;2022-11-15T15:01:12;25.45;;;14.70;;
44120;SDS011;29783;52.504;13.478;2022-11-15T15:03:44;20.17;;;14.48;;
44120;SDS011;29783;52.504;13.478;2022-11-15T15:06:10;21.27;;;15.45;;
44120;SDS011;29783;52.504;13.478;2022-11-15T15:08:38;23.20;;;15.23;;
44120;SDS011;29783;52.504;13.478;2022-11-15T15:11:07;27.63;;;14.73;;
44120;SDS011;29783;52.504;13.478;2022-11-15T15:13:38;22.35;;;14.85;;
44120;SDS011;29783;52.504;13.478;2022-11-15T15:16:03;23.20;;;15.45;;
44120;SDS011;29783;52.504;13.478;2022-11-15T15:18:29;23.70;;;14.82;;
44120;SDS011;29783;52.504;13.478;2022-11-15T15:20:56;23.00;;;15.93;;
44120;SDS011;29783;52.504;13.478;2022-11-15T15:23:32;21.70;;;16.98;;
44120;SDS011;29783;52.504;13.478;2022-11-15T15:25:58;22.25;;;16.15;;
44120;SDS011;29783;52.504;13.478;2022-11-15T15:28:24;20.83;;;16.75;;
44120;SDS011;29783;52.504;13.478;2022-11-15T15:30:50;19.48;;;16.55;;
44120;SDS011;29783;52.504;13.478;2022-11-15T15:33:17;24.13;;;17.48;;
44120;SDS011;29783;52.504;13.478;2022-11-15T15:35:43;25.65;;;18.92;;
44120;SDS011;29783;52.504;13.478;2022-11-15T15:38:11;26.05;;;19.48;;
44120;SDS011;29783;52.504;13.478;2022-11-15T15:40:37;25.23;;;19.15;;
44120;SDS011;29783;52.504;13.478;2022-11-15T15:43:03;29.25;;;16.40;;
44120;SDS011;29783;52.504;13.478;2022-11-15T15:45:38;27.73;;;17.95;;
44120;SDS011;29783;52.504;13.478;2022-11-15T15:48:19;24.23;;;16.98;;
44120;SDS011;29783;52.504;13.478;2022-11-15T15:54:48;27.50;;;18.40;;
44120;SDS011;29783;52.504;13.478;2022-11-15T15:57:14;22.35;;;17.90;;
44120;SDS011;29783;52.504;13.478;2022-11-15T15:59:46;24.13;;;17.73;;
44120;SDS011;29783;52.504;13.478;2022-11-15T16:02:24;30.02;;;19.45;;
44120;SDS011;29783;52.504;13.478;2022-11-15T16:04:50;25.40;;;19.20;;
44120;SDS011;29783;52.504;13.478;2022-11-15T16:10:27;30.27;;;21.70;;
44120;SDS011;29783;52.504;13.478;2022-11-15T16:12:59;26.58;;;21.30;;
44120;SDS011;29783;52.504;13.478;2022-11-15T16:15:27;28.45;;;20.70;;
44120;SDS011;29783;52.504;13.478;2022-11-15T16:17:56;30.88;;;22.42;;
44120;SDS011;29783;52.504;13.478;2022-11-15T16:20:28;32.58;;;23.45;;
44120;SDS011;29783;52.504;13.478;2022-11-15T16:23:07;29.70;;;22.88;;
44120;SDS011;29783;52.504;13.478;2022-11-15T16:25:44;31.15;;;20.98;;
44120;SDS011;29783;52.504;13.478;2022-11-15T16:30:43;26.98;;;21.83;;
44120;SDS011;29783;52.504;13.478;2022-11-15T16:33:09;32.25;;;21.88;;
44120;SDS011;29783;52.504;13.478;2022-11-15T16:35:35;28.42;;;22.58;;
44120;SDS011;29783;52.504;13.478;2022-11-15T16:38:03;36.22;;;24.60;;
44120;SDS011;29783;52.504;13.478;2022-11-15T16:40:29;30.45;;;24.27;;
44120;SDS011;29783;52.504;13.478;2022-11-15T16:42:57;29.52;;;24.77;;
44120;SDS011;29783;52.504;13.478;2022-11-15T16:45:24;36.00;;;27.58;;
44120;SDS011;29783;52.504;13.478;2022-11-15T16:47:53;31.55;;;27.00;;
44120;SDS011;29783;52.504;13.478;2022-11-15T16:50:24;36.17;;;29.98;;
44120;SDS011;29783;52.504;13.478;2022-11-15T16:52:54;38.55;;;30.27;;
44120;SDS011;29783;52.504;13.478;2022-11-15T16:55:22;47.13;;;30.48;;
44120;SDS011;29783;52.504;13.478;2022-11-15T16:57:49;41.05;;;30.83;;
44120;SDS011;29783;52.504;13.478;2022-11-15T17:00:16;44.35;;;33.38;;
44120;SDS011;29783;52.504;13.478;2022-11-15T17:02:44;43.70;;;35.15;;
44120;SDS011;29783;52.504;13.478;2022-11-15T17:05:11;45.72;;;38.75;;
44120;SDS011;29783;52.504;13.478;2022-11-15T17:07:40;46.35;;;38.00;;
44120;SDS011;29783;52.504;13.478;2022-11-15T17:10:10;46.17;;;38.20;;
44120;SDS011;29783;52.504;13.478;2022-11-15T17:12:36;50.67;;;41.08;;
44120;SDS011;29783;52.504;13.478;2022-11-15T17:15:03;57.33;;;42.30;;
44120;SDS011;29783;52.504;13.478;2022-11-15T17:17:30;56.28;;;44.33;;
44120;SDS011;29783;52.504;13.478;2022-11-15T17:19:59;52.70;;;43.10;;
44120;SDS011;29783;52.504;13.478;2022-11-15T17:22:29;52.58;;;44.38;;
44120;SDS011;29783;52.504;13.478;2022-11-15T17:24:56;62.17;;;43.90;;
44120;SDS011;29783;52.504;13.478;2022-11-15T17:27:21;58.53;;;45.47;;
44120;SDS011;29783;52.504;13.478;2022-11-15T17:29:53;58.67;;;46.13;;
44120;SDS011;29783;52.504;13.478;2022-11-15T17:32:19;58.88;;;46.47;;
44120;SDS011;29783;52.504;13.478;2022-11-15T17:35:02;59.13;;;47.95;;
44120;SDS011;29783;52.504;13.478;2022-11-15T17:37:45;62.50;;;48.47;;
44120;SDS011;29783;52.504;13.478;2022-11-15T17:40:19;54.80;;;46.45;;
44120;SDS011;29783;52.504;13.478;2022-11-15T17:42:54;58.90;;;48.20;;
44120;SDS011;29783;52.504;13.478;2022-11-15T17:45:23;64.70;;;48.95;;
44120;SDS011;29783;52.504;13.478;2022-11-15T17:48:12;62.35;;;48.72;;
44120;SDS011;29783;52.504;13.478;2022-11-15T17:50:41;64.07;;;48.42;;
44120;SDS011;29783;52.504;13.478;2022-11-15T17:53:07;64.65;;;50.20;;
44120;SDS011;29783;52.504;13.478;2022-11-15T17:55:39;63.08;;;50.97;;
44120;SDS011;29783;52.504;13.478;2022-11-15T18:01:51;63.78;;;51.80;;